createdAt,value
2023-04-05T00:33:07.488Z,-0.49
2023-04-05T00:52:09.386Z,-0.41
2023-04-05T00:54:37.167Z,-0.33
2023-04-05T00:57:06.313Z,-0.56
2023-04-05T00:59:33.330Z,-0.35
2023-04-05T01:02:09.073Z,-0.24
2023-04-05T01:07:42.491Z,-0.44
2023-04-05T01:10:11.040Z,-0.36
2023-04-05T01:12:38.100Z,-0.53
2023-04-05T01:20:14.359Z,-0.40
2023-04-05T01:23:00.255Z,0.09
2023-04-05T01:25:42.392Z,-0.09
2023-04-05T01:28:29.003Z,-0.44
2023-04-05T01:31:09.804Z,-0.11
2023-04-05T01:33:55.485Z,-0.76
2023-04-05T01:44:29.409Z,-0.87
2023-04-05T01:46:56.807Z,-0.84
2023-04-05T01:49:24.337Z,-0.81
2023-04-05T01:51:51.452Z,-0.67
2023-04-05T01:54:18.393Z,-0.71
2023-04-05T01:56:46.291Z,-0.64
2023-04-05T01:59:13.242Z,-0.78
2023-04-05T02:01:40.126Z,-0.94
2023-04-05T02:04:06.840Z,-1.05
2023-04-05T02:11:57.577Z,-1.09
2023-04-05T02:14:25.159Z,-1.48
2023-04-05T02:22:22.401Z,-0.87
2023-04-05T02:24:49.370Z,-0.78
2023-04-05T02:38:10.522Z,-0.54
2023-04-05T02:40:37.849Z,-0.45
2023-04-05T02:43:04.790Z,-0.84
2023-04-05T02:53:51.433Z,-0.39
2023-04-05T03:04:02.969Z,-0.90
2023-04-05T03:37:20.446Z,-1.63
2023-04-05T03:39:47.406Z,-1.60
2023-04-05T03:42:16.259Z,-1.96
2023-04-05T03:44:43.245Z,-1.98
2023-04-05T03:49:45.502Z,-1.74
2023-04-05T04:09:05.896Z,-1.97
2023-04-05T04:11:32.812Z,-1.89
2023-04-05T04:13:59.731Z,-1.99
2023-04-05T04:16:28.694Z,-2.14
2023-04-05T04:18:59.733Z,-1.66
2023-04-05T04:21:26.599Z,-1.86
2023-04-05T04:23:53.507Z,-2.19
2023-04-05T04:28:56.215Z,-2.18
2023-04-05T04:31:23.240Z,-2.01
2023-04-05T04:33:50.446Z,-2.42
2023-04-05T04:36:19.092Z,-2.33
2023-04-05T04:48:26.826Z,-2.10
2023-04-05T04:50:54.915Z,-2.04
2023-04-05T04:53:24.192Z,-1.28
2023-04-05T04:58:26.861Z,-2.12
2023-04-05T05:01:32.179Z,-1.62
2023-04-05T05:16:24.694Z,-0.80
2023-04-05T05:18:52.744Z,-0.24
2023-04-05T05:21:19.627Z,0.18
2023-04-05T05:23:47.257Z,0.11
2023-04-05T05:26:14.670Z,0.25
2023-04-05T05:28:41.548Z,0.75
2023-04-05T05:31:08.314Z,1.01
2023-04-05T05:33:35.280Z,1.01
2023-04-05T05:36:04.248Z,1.34
2023-04-05T05:38:31.131Z,2.35
2023-04-05T05:40:58.142Z,2.43
2023-04-05T05:43:25.124Z,2.36
2023-04-05T05:45:52.020Z,2.55
2023-04-05T05:48:18.890Z,3.17
2023-04-05T05:50:48.848Z,3.03
2023-04-05T05:53:16.570Z,2.49
2023-04-05T05:55:43.586Z,2.97
2023-04-05T05:58:10.308Z,4.00
2023-04-05T06:00:43.195Z,4.00
2023-04-05T06:03:11.055Z,4.49
2023-04-05T06:05:37.978Z,3.97
2023-04-05T06:08:04.896Z,4.55
2023-04-05T06:10:31.818Z,4.77
2023-04-05T06:12:58.818Z,4.21
2023-04-05T06:15:25.824Z,4.41
2023-04-05T06:17:52.761Z,4.43
2023-04-05T06:20:19.724Z,4.73
2023-04-05T06:22:46.672Z,5.23
2023-04-05T06:25:13.841Z,5.21
2023-04-05T06:27:41.335Z,4.41
2023-04-05T06:30:08.682Z,4.91
2023-04-05T06:32:35.788Z,4.39
2023-04-05T06:35:04.134Z,4.47
2023-04-05T06:37:31.561Z,3.84
2023-04-05T06:39:59.557Z,3.99
2023-04-05T06:42:27.907Z,4.77
2023-04-05T06:44:55.363Z,4.24
2023-04-05T06:47:22.236Z,3.61
2023-04-05T06:49:48.891Z,4.16
2023-04-05T06:52:15.774Z,3.54
2023-04-05T06:54:42.618Z,4.07
2023-04-05T06:57:09.297Z,3.74
2023-04-05T06:59:37.175Z,3.95
2023-04-05T07:02:04.126Z,4.44
2023-04-05T07:04:35.701Z,4.53
2023-04-05T07:07:03.767Z,4.34
2023-04-05T07:09:32.869Z,4.08
2023-04-05T07:12:01.558Z,4.07
2023-04-05T07:14:30.530Z,4.69
2023-04-05T07:16:57.555Z,4.02
2023-04-05T07:19:24.535Z,3.90
2023-04-05T07:21:51.406Z,4.02
2023-04-05T07:24:18.137Z,4.19
2023-04-05T07:26:45.310Z,3.99
2023-04-05T07:29:13.123Z,3.88
2023-04-05T07:31:42.931Z,3.69
2023-04-05T07:34:09.976Z,4.22
2023-04-05T07:36:38.039Z,4.74
2023-04-05T07:39:05.518Z,4.54
2023-04-05T07:41:32.498Z,4.72
2023-04-05T07:43:59.375Z,5.01
2023-04-05T07:46:27.424Z,5.22
2023-04-05T07:48:54.497Z,5.12
2023-04-05T07:51:21.458Z,6.37
2023-04-05T07:53:49.043Z,6.43
2023-04-05T07:56:16.417Z,6.26
2023-04-05T07:58:43.352Z,5.61
2023-04-05T08:01:11.355Z,6.37
2023-04-05T08:03:40.071Z,6.77
2023-04-05T08:06:19.616Z,6.72
2023-04-05T08:08:47.458Z,7.89
2023-04-05T08:11:14.353Z,7.04
2023-04-05T08:13:42.020Z,6.20
2023-04-05T08:16:09.930Z,6.90
2023-04-05T08:18:37.118Z,6.42
2023-04-05T08:21:04.311Z,6.79
2023-04-05T08:23:32.136Z,7.68
2023-04-05T08:25:59.011Z,7.34
2023-04-05T08:28:26.039Z,6.84
2023-04-05T08:30:56.700Z,6.51
2023-04-05T08:33:24.356Z,7.31
2023-04-05T08:35:51.673Z,6.46
2023-04-05T08:38:18.674Z,5.89
2023-04-05T08:40:47.532Z,5.99
2023-04-05T08:43:26.120Z,6.40
2023-04-05T08:45:53.707Z,7.17
2023-04-05T08:48:20.883Z,6.64
2023-04-05T08:50:54.482Z,6.24
2023-04-05T08:53:22.095Z,6.81
2023-04-05T08:55:56.634Z,6.67
2023-04-05T08:58:24.809Z,7.22
2023-04-05T09:00:52.328Z,7.66
2023-04-05T09:03:24.007Z,7.46
2023-04-05T09:05:52.121Z,6.19
2023-04-05T09:08:21.503Z,5.46
2023-04-05T09:10:51.741Z,5.16
2023-04-05T09:13:19.201Z,6.05
2023-04-05T09:15:46.972Z,7.00
2023-04-05T09:18:25.400Z,6.67
2023-04-05T09:21:02.044Z,7.37
2023-04-05T09:23:29.299Z,7.15
2023-04-05T09:25:56.248Z,6.56
2023-04-05T09:28:23.172Z,7.07
2023-04-05T09:30:50.101Z,8.68
2023-04-05T09:33:22.538Z,7.49
2023-04-05T09:35:51.768Z,7.60
2023-04-05T09:38:18.748Z,6.34
2023-04-05T09:40:49.907Z,7.52
2023-04-05T09:43:39.174Z,7.58
2023-04-05T09:46:06.176Z,7.81
2023-04-05T09:53:37.950Z,9.41
2023-04-05T09:56:13.817Z,9.03
2023-04-05T09:58:40.762Z,7.60
2023-04-05T10:03:48.433Z,9.05
2023-04-05T10:06:19.007Z,8.23
2023-04-05T10:08:49.327Z,9.74
2023-04-05T10:11:18.937Z,8.24
2023-04-05T10:13:46.243Z,9.31
2023-04-05T10:16:17.460Z,10.81
2023-04-05T10:18:49.869Z,10.21
2023-04-05T10:21:21.584Z,9.68
2023-04-05T10:23:56.330Z,8.49
2023-04-05T10:26:39.124Z,8.84
2023-04-05T10:29:12.760Z,9.73
2023-04-05T10:31:55.916Z,10.65
2023-04-05T10:34:32.458Z,10.66
2023-04-05T10:37:02.091Z,10.64
2023-04-05T10:39:35.831Z,10.69
2023-04-05T10:42:10.435Z,9.38
2023-04-05T10:44:37.902Z,10.39
2023-04-05T10:47:06.062Z,10.62
2023-04-05T10:49:54.136Z,11.28
2023-04-05T10:52:22.405Z,11.37
2023-04-05T10:54:49.880Z,8.06
2023-04-05T10:57:19.743Z,8.28
2023-04-05T10:59:47.363Z,7.73
2023-04-05T11:02:14.779Z,8.66
2023-04-05T11:04:42.711Z,8.09
2023-04-05T11:07:19.842Z,7.63
2023-04-05T11:10:00.422Z,8.23
2023-04-05T11:12:46.223Z,9.50
2023-04-05T11:15:28.188Z,8.74
2023-04-05T11:18:04.453Z,10.29
2023-04-05T11:20:56.403Z,10.40
2023-04-05T11:23:25.280Z,9.71
2023-04-05T11:26:06.699Z,9.38
2023-04-05T11:28:39.651Z,9.15
2023-04-05T11:31:19.966Z,9.63
2023-04-05T11:34:10.056Z,10.14
2023-04-05T11:36:38.599Z,10.09
2023-04-05T11:39:23.785Z,9.88
2023-04-05T11:42:05.019Z,10.35
2023-04-05T11:44:49.356Z,9.14
2023-04-05T11:47:23.192Z,10.53
2023-04-05T11:49:51.357Z,9.38
2023-04-05T11:52:20.780Z,10.47
2023-04-05T11:54:49.158Z,9.44
2023-04-05T11:57:20.072Z,8.36
2023-04-05T11:59:47.053Z,8.29
2023-04-05T12:02:13.931Z,9.89
2023-04-05T12:04:40.892Z,10.75
2023-04-05T12:07:17.981Z,11.03
2023-04-05T12:10:16.239Z,10.75
2023-04-05T12:12:45.202Z,10.09
2023-04-05T12:15:14.846Z,9.71
2023-04-05T12:17:44.202Z,8.61
2023-04-05T12:20:13.087Z,9.32
2023-04-05T12:22:42.179Z,9.79
2023-04-05T12:25:09.779Z,10.53
2023-04-05T12:27:36.987Z,10.09
2023-04-05T12:30:07.999Z,10.24
2023-04-05T12:32:51.420Z,10.35
2023-04-05T12:35:22.665Z,9.57
2023-04-05T12:37:51.061Z,10.63
2023-04-05T12:40:23.106Z,10.50
2023-04-05T12:42:50.566Z,8.82
2023-04-05T12:45:18.726Z,9.02
2023-04-05T12:47:58.269Z,9.37
2023-04-05T12:50:31.875Z,8.86
2023-04-05T12:53:05.813Z,9.78
2023-04-05T12:55:33.197Z,10.03
2023-04-05T12:58:01.926Z,10.46
2023-04-05T13:00:29.862Z,9.62
2023-04-05T13:02:58.365Z,9.95
2023-04-05T13:05:27.604Z,10.91
2023-04-05T13:07:54.687Z,10.17
2023-04-05T13:10:23.755Z,10.10
2023-04-05T13:12:50.852Z,9.88
2023-04-05T13:15:18.416Z,10.07
2023-04-05T13:17:45.997Z,9.84
2023-04-05T13:20:12.984Z,10.45
2023-04-05T13:22:40.021Z,9.11
2023-04-05T13:25:07.309Z,9.41
2023-04-05T13:27:34.221Z,8.85
2023-04-05T13:30:01.081Z,8.80
2023-04-05T13:32:27.791Z,9.67
2023-04-05T13:34:54.680Z,9.77
2023-04-05T13:37:21.355Z,9.84
2023-04-05T13:39:48.240Z,9.66
2023-04-05T13:42:15.167Z,9.52
2023-04-05T13:44:42.038Z,8.82
2023-04-05T13:47:09.305Z,8.87
2023-04-05T13:49:36.344Z,9.66
2023-04-05T13:52:03.255Z,9.08
2023-04-05T13:54:30.098Z,9.31
2023-04-05T13:56:57.270Z,9.19
2023-04-05T13:59:24.186Z,9.20
2023-04-05T14:01:51.388Z,9.02
2023-04-05T14:04:18.421Z,9.18
2023-04-05T14:06:45.477Z,8.75
2023-04-05T14:09:12.497Z,9.27
2023-04-05T14:11:39.476Z,9.15
2023-04-05T14:14:07.065Z,8.62
2023-04-05T14:16:34.264Z,9.11
2023-04-05T14:19:01.219Z,9.17
2023-04-05T14:21:28.151Z,9.41
2023-04-05T14:23:57.254Z,9.36
2023-04-05T14:26:26.316Z,9.92
2023-04-05T14:28:53.934Z,8.66
2023-04-05T14:31:20.931Z,8.28
2023-04-05T14:33:47.858Z,8.54
2023-04-05T14:36:14.565Z,8.40
2023-04-05T14:38:41.540Z,8.52
2023-04-05T14:41:08.657Z,9.38
2023-04-05T14:43:35.894Z,8.76
2023-04-05T14:46:02.900Z,8.26
2023-04-05T14:48:31.992Z,8.24
2023-04-05T14:50:59.335Z,7.99
2023-04-05T14:53:26.364Z,8.42
2023-04-05T14:55:53.255Z,7.78
2023-04-05T14:58:21.340Z,7.59
2023-04-05T15:00:52.094Z,7.86
2023-04-05T15:03:19.864Z,7.83
2023-04-05T15:05:47.678Z,7.63
2023-04-05T15:08:15.717Z,8.10
2023-04-05T15:10:43.374Z,8.25
2023-04-05T15:13:10.739Z,8.47
2023-04-05T15:15:38.039Z,8.40
2023-04-05T15:18:05.534Z,8.64
2023-04-05T15:20:33.084Z,8.92
2023-04-05T15:23:00.603Z,8.98
2023-04-05T15:25:27.456Z,8.15
2023-04-05T15:27:55.027Z,8.36
2023-04-05T15:30:22.248Z,9.07
2023-04-05T15:32:49.225Z,8.16
2023-04-05T15:35:16.435Z,7.69
2023-04-05T15:37:43.475Z,8.19
2023-04-05T15:40:10.828Z,8.32
2023-04-05T15:42:37.785Z,8.26
2023-04-05T15:45:05.229Z,8.32
2023-04-05T15:47:32.166Z,8.36
2023-04-05T15:49:59.105Z,8.52
2023-04-05T15:52:26.130Z,8.40
2023-04-05T15:54:53.029Z,8.24
2023-04-05T15:57:19.944Z,7.50
2023-04-05T15:59:46.917Z,7.25
2023-04-05T16:02:13.978Z,6.77
2023-04-05T16:04:41.000Z,7.11
2023-04-05T16:07:09.082Z,7.75
2023-04-05T16:09:35.976Z,8.08
2023-04-05T16:12:02.632Z,8.10
2023-04-05T16:14:29.598Z,7.93
2023-04-05T16:16:56.860Z,7.69
2023-04-05T16:19:24.133Z,7.72
2023-04-05T16:21:52.867Z,7.44
2023-04-05T16:24:20.232Z,7.37
2023-04-05T16:26:47.108Z,7.43
2023-04-05T16:29:13.841Z,7.52
2023-04-05T16:31:40.938Z,7.74
2023-04-05T16:34:08.268Z,7.63
2023-04-05T16:36:35.189Z,7.60
2023-04-05T16:39:02.470Z,7.68
2023-04-05T16:41:29.593Z,7.54
2023-04-05T16:43:56.489Z,7.03
2023-04-05T16:46:23.418Z,6.90
2023-04-05T16:48:50.544Z,6.75
2023-04-05T16:51:17.538Z,6.69
2023-04-05T16:53:44.472Z,6.75
2023-04-05T16:56:11.466Z,6.73
2023-04-05T16:58:38.400Z,6.65
2023-04-05T17:01:05.931Z,6.71
2023-04-05T17:03:33.000Z,6.58
2023-04-05T17:05:59.979Z,6.32
2023-04-05T17:08:27.205Z,6.16
2023-04-05T17:10:54.218Z,6.33
2023-04-05T17:13:21.286Z,6.09
2023-04-05T17:15:49.386Z,5.90
2023-04-05T17:18:16.443Z,6.16
2023-04-05T17:20:43.388Z,6.16
2023-04-05T17:23:10.367Z,6.20
2023-04-05T17:25:37.316Z,6.21
2023-04-05T17:28:04.331Z,5.79
2023-04-05T17:30:31.936Z,6.06
2023-04-05T17:32:58.992Z,5.80
2023-04-05T17:35:26.039Z,5.73
2023-04-05T17:37:53.221Z,5.49
2023-04-05T17:40:20.135Z,5.63
2023-04-05T17:42:47.000Z,5.57
2023-04-05T17:45:13.709Z,5.95
2023-04-05T17:47:40.755Z,5.81
2023-04-05T17:50:08.084Z,5.69
2023-04-05T17:52:34.992Z,5.78
2023-04-05T17:55:01.939Z,5.17
2023-04-05T17:57:28.884Z,5.15
2023-04-05T17:59:57.538Z,5.06
2023-04-05T18:02:24.483Z,5.10
2023-04-05T18:04:51.413Z,5.22
2023-04-05T18:07:18.303Z,5.01
2023-04-05T18:09:45.207Z,4.81
2023-04-05T18:12:12.307Z,4.99
2023-04-05T18:14:39.205Z,4.95
2023-04-05T18:17:07.585Z,4.65
2023-04-05T18:19:34.730Z,4.79
2023-04-05T18:22:01.707Z,4.91
2023-04-05T18:24:29.633Z,5.30
2023-04-05T18:26:57.607Z,5.30
2023-04-05T18:29:30.897Z,4.54
2023-04-05T18:31:58.060Z,4.52
2023-04-05T18:34:25.168Z,4.35
2023-04-05T18:36:52.112Z,4.78
2023-04-05T18:39:20.325Z,4.89
2023-04-05T18:41:47.677Z,4.84
2023-04-05T18:44:14.645Z,5.10
2023-04-05T18:46:41.787Z,4.85
2023-04-05T18:49:09.084Z,4.72
2023-04-05T18:51:36.325Z,4.64
2023-04-05T18:54:03.585Z,4.60
2023-04-05T18:56:30.493Z,4.73
2023-04-05T18:58:57.484Z,4.53
2023-04-05T19:01:24.621Z,4.85
2023-04-05T19:03:51.635Z,5.16
2023-04-05T19:06:18.707Z,4.97
2023-04-05T19:08:48.165Z,4.75
2023-04-05T19:11:15.210Z,4.43
2023-04-05T19:13:42.275Z,5.27
2023-04-05T19:16:09.343Z,4.74
2023-04-05T19:18:36.319Z,4.88
2023-04-05T19:21:03.285Z,5.28
2023-04-05T19:23:30.630Z,4.92
2023-04-05T19:25:58.150Z,4.86
2023-04-05T19:28:26.137Z,4.48
2023-04-05T19:30:53.727Z,4.68
2023-04-05T19:33:21.818Z,4.64
2023-04-05T19:35:49.291Z,4.66
2023-04-05T19:38:16.455Z,5.21
2023-04-05T19:40:43.462Z,5.08
2023-04-05T19:43:11.624Z,4.90
2023-04-05T19:45:38.628Z,4.54
2023-04-05T19:48:31.399Z,5.15
2023-04-05T19:51:00.215Z,5.08
2023-04-05T19:53:32.112Z,4.48
2023-04-05T19:55:58.994Z,4.60
2023-04-05T19:58:28.561Z,4.12
2023-04-05T20:00:55.814Z,3.90
2023-04-05T20:03:34.029Z,3.59
2023-04-05T20:06:06.345Z,3.83
2023-04-05T20:08:35.253Z,4.19
2023-04-05T20:11:05.760Z,3.94
2023-04-05T20:13:33.016Z,4.52
2023-04-05T20:16:00.173Z,4.56
2023-04-05T20:18:27.484Z,4.51
2023-04-05T20:20:54.792Z,4.33
2023-04-05T20:23:22.920Z,4.23
2023-04-05T20:25:50.830Z,3.90
2023-04-05T20:28:38.405Z,3.76
2023-04-05T20:31:08.039Z,4.21
2023-04-05T20:33:53.489Z,3.65
2023-04-05T20:36:22.658Z,4.15
2023-04-05T20:38:50.533Z,3.76
2023-04-05T20:41:18.837Z,3.69
2023-04-05T20:43:46.056Z,3.67
2023-04-05T20:46:13.106Z,4.06
2023-04-05T20:48:40.079Z,3.73
2023-04-05T20:51:08.099Z,3.72
2023-04-05T20:53:36.473Z,3.59
2023-04-05T20:56:04.950Z,3.57
2023-04-05T20:58:31.901Z,3.22
2023-04-05T21:01:02.973Z,3.60
2023-04-05T21:03:34.234Z,3.32
2023-04-05T21:06:01.949Z,2.77
2023-04-05T21:08:30.106Z,2.95
2023-04-05T21:10:58.876Z,3.09
2023-04-05T21:13:25.862Z,2.69
2023-04-05T21:15:56.568Z,3.14
2023-04-05T21:18:24.656Z,3.21
2023-04-05T21:20:53.051Z,3.25
2023-04-05T21:23:23.960Z,3.07
2023-04-05T21:25:50.843Z,3.24
2023-04-05T21:28:17.756Z,2.70
2023-04-05T21:30:45.079Z,2.92
2023-04-05T21:33:12.686Z,2.81
2023-04-05T21:35:39.886Z,3.07
2023-04-05T21:38:07.033Z,2.69
2023-04-05T21:40:34.031Z,2.68
2023-04-05T21:43:00.989Z,2.80
2023-04-05T21:45:27.950Z,2.67
2023-04-05T21:47:54.717Z,3.20
2023-04-05T21:50:21.809Z,3.23
2023-04-05T21:52:48.829Z,3.60
2023-04-05T21:55:15.988Z,3.06
2023-04-05T21:57:42.850Z,2.80
2023-04-05T22:00:12.192Z,2.76
2023-04-05T22:02:39.799Z,2.76
2023-04-05T22:05:08.150Z,2.62
2023-04-05T22:07:36.042Z,2.61
2023-04-05T22:10:03.420Z,2.63
2023-04-05T22:12:30.781Z,2.62
2023-04-05T22:14:57.712Z,2.03
2023-04-05T22:17:24.637Z,2.43
2023-04-05T22:19:51.603Z,2.41
2023-04-05T22:22:19.709Z,2.29
2023-04-05T22:24:47.544Z,2.35
2023-04-05T22:27:14.450Z,2.41
2023-04-05T22:29:41.390Z,2.34
2023-04-05T22:32:08.350Z,2.52
2023-04-05T22:34:35.583Z,2.62
2023-04-05T22:37:02.562Z,2.59
2023-04-05T22:39:29.473Z,2.59
2023-04-05T22:41:56.837Z,2.40
2023-04-05T22:44:24.701Z,2.18
2023-04-05T22:46:51.715Z,2.45
2023-04-05T22:49:18.651Z,2.00
2023-04-05T22:51:45.566Z,2.58
2023-04-05T22:54:12.320Z,2.35
2023-04-05T22:56:39.193Z,2.44
2023-04-05T22:59:06.490Z,2.22
2023-04-05T23:01:33.956Z,2.53
2023-04-05T23:04:01.005Z,2.32
2023-04-05T23:06:27.951Z,2.53
2023-04-05T23:08:54.875Z,2.09
2023-04-05T23:11:21.644Z,2.44
2023-04-05T23:13:48.663Z,2.47
2023-04-05T23:16:15.811Z,2.18
2023-04-05T23:18:42.622Z,2.21
2023-04-05T23:21:09.369Z,2.25
2023-04-05T23:23:36.135Z,2.07
2023-04-05T23:26:02.864Z,1.96
2023-04-05T23:28:29.568Z,2.15
2023-04-05T23:30:56.242Z,1.77
2023-04-05T23:33:22.954Z,1.34
2023-04-05T23:35:49.887Z,1.45
2023-04-05T23:38:16.744Z,1.84
2023-04-05T23:40:43.420Z,1.96
2023-04-05T23:43:11.030Z,2.18
2023-04-05T23:45:37.750Z,1.91
2023-04-05T23:48:04.549Z,2.49
2023-04-05T23:50:31.365Z,2.23
2023-04-05T23:52:58.200Z,1.65
2023-04-05T23:55:24.929Z,1.95
2023-04-05T23:57:52.386Z,1.97
